createdAt,value
2022-09-07T00:02:22.623Z,95085.81
2022-09-07T00:04:49.673Z,95088.22
2022-09-07T00:07:16.440Z,95086.50
2022-09-07T00:09:43.233Z,95095.84
2022-09-07T00:12:10.387Z,95096.97
2022-09-07T00:14:37.570Z,95083.44
2022-09-07T00:17:04.581Z,95091.22
2022-09-07T00:19:31.365Z,95098.25
2022-09-07T00:21:58.203Z,95098.56
2022-09-07T00:24:25.310Z,95085.97
2022-09-07T00:26:55.070Z,95092.19
2022-09-07T00:29:21.999Z,95085.34
2022-09-07T00:31:48.987Z,95090.13
2022-09-07T00:34:16.044Z,95088.69
2022-09-07T00:36:43.009Z,95088.22
2022-09-07T00:39:09.855Z,95089.19
2022-09-07T00:41:36.647Z,95087.44
2022-09-07T00:44:22.423Z,95088.88
2022-09-07T00:46:49.409Z,95090.97
2022-09-07T00:49:19.360Z,95089.38
2022-09-07T00:51:52.337Z,95086.03
2022-09-07T00:54:22.122Z,95075.66
2022-09-07T00:56:50.209Z,95078.38
2022-09-07T00:59:20.206Z,95085.22
2022-09-07T01:01:47.315Z,95087.00
2022-09-07T01:04:15.534Z,95083.00
2022-09-07T01:06:43.545Z,95080.13
2022-09-07T01:09:12.263Z,95075.66
2022-09-07T01:11:39.225Z,95078.69
2022-09-07T01:14:07.636Z,95076.16
2022-09-07T01:17:00.829Z,95071.22
2022-09-07T01:19:46.726Z,95072.47
2022-09-07T01:22:52.075Z,95078.03
2022-09-07T01:25:37.713Z,95076.63
2022-09-07T01:28:13.238Z,95070.88
2022-09-07T01:30:42.324Z,95072.47
2022-09-07T01:33:41.192Z,95069.75
2022-09-07T01:36:31.408Z,95061.94
2022-09-07T01:39:02.938Z,95068.16
2022-09-07T01:41:35.200Z,95077.09
2022-09-07T01:44:20.402Z,95071.50
2022-09-07T01:46:57.547Z,95073.59
2022-09-07T01:49:26.659Z,95075.66
2022-09-07T01:51:57.333Z,95078.66
2022-09-07T01:54:44.512Z,95075.31
2022-09-07T01:57:16.224Z,95070.53
2022-09-07T01:59:45.712Z,95067.03
2022-09-07T02:02:18.243Z,95066.84
2022-09-07T02:05:03.477Z,95064.31
2022-09-07T02:07:35.222Z,95060.47
2022-09-07T02:10:13.321Z,95061.75
2022-09-07T02:13:07.242Z,95063.66
2022-09-07T02:15:52.123Z,95054.28
2022-09-07T02:18:21.047Z,95061.38
2022-09-07T02:20:50.114Z,95066.00
2022-09-07T02:23:26.270Z,95066.16
2022-09-07T02:25:56.246Z,95069.97
2022-09-07T02:28:26.527Z,95072.53
2022-09-07T02:30:53.681Z,95057.38
2022-09-07T02:33:20.856Z,95067.25
2022-09-07T02:35:47.711Z,95067.25
2022-09-07T02:38:14.855Z,95061.84
2022-09-07T02:40:41.787Z,95061.69
2022-09-07T02:43:09.505Z,95057.69
2022-09-07T02:46:02.961Z,95055.94
2022-09-07T02:48:48.592Z,95061.84
2022-09-07T02:51:23.417Z,95065.50
2022-09-07T02:54:22.613Z,95058.34
2022-09-07T02:57:12.636Z,95064.84
2022-09-07T03:00:02.227Z,95066.56
2022-09-07T03:02:31.484Z,95066.94
2022-09-07T03:05:21.484Z,95069.63
2022-09-07T03:07:52.427Z,95065.47
2022-09-07T03:10:19.475Z,95070.22
2022-09-07T03:12:47.722Z,95064.19
2022-09-07T03:15:20.073Z,95067.06
2022-09-07T03:17:47.244Z,95063.75
2022-09-07T03:20:14.554Z,95065.50
2022-09-07T03:22:41.661Z,95067.41
2022-09-07T03:25:09.298Z,95070.44
2022-09-07T03:27:36.292Z,95066.47
2022-09-07T03:30:04.272Z,95076.16
2022-09-07T03:32:32.596Z,95078.41
2022-09-07T03:35:00.067Z,95074.56
2022-09-07T03:37:27.220Z,95081.56
2022-09-07T03:39:54.207Z,95085.88
2022-09-07T03:42:21.523Z,95084.41
2022-09-07T03:44:50.197Z,95080.59
2022-09-07T03:47:17.567Z,95085.03
2022-09-07T03:49:44.440Z,95081.84
2022-09-07T03:52:11.315Z,95082.47
2022-09-07T03:54:39.697Z,95081.50
2022-09-07T03:57:06.925Z,95086.94
2022-09-07T03:59:33.876Z,95083.28
2022-09-07T04:02:00.790Z,95086.16
2022-09-07T04:04:28.070Z,95087.63
2022-09-07T04:06:55.012Z,95090.81
2022-09-07T04:09:21.971Z,95092.84
2022-09-07T04:11:49.014Z,95088.66
2022-09-07T04:14:16.289Z,95099.91
2022-09-07T04:16:44.938Z,95096.91
2022-09-07T04:19:11.946Z,95100.84
2022-09-07T04:21:39.191Z,95092.41
2022-09-07T04:24:06.141Z,95093.75
2022-09-07T04:26:33.764Z,95091.53
2022-09-07T04:29:04.154Z,95087.63
2022-09-07T04:31:31.138Z,95093.06
2022-09-07T04:33:57.954Z,95093.72
2022-09-07T04:36:27.981Z,95101.81
2022-09-07T04:38:59.821Z,95098.78
2022-09-07T04:41:27.732Z,95099.25
2022-09-07T04:43:55.847Z,95101.13
2022-09-07T04:46:26.571Z,95100.63
2022-09-07T04:48:54.797Z,95098.53
2022-09-07T04:51:22.599Z,95106.66
2022-09-07T04:53:51.126Z,95112.78
2022-09-07T04:56:18.797Z,95108.34
2022-09-07T04:58:46.080Z,95105.47
2022-09-07T05:01:14.378Z,95115.84
2022-09-07T05:03:41.530Z,95118.28
2022-09-07T05:06:09.771Z,95117.66
2022-09-07T05:08:38.307Z,95120.22
2022-09-07T05:11:07.098Z,95122.94
2022-09-07T05:13:34.305Z,95115.91
2022-09-07T05:16:02.020Z,95104.84
2022-09-07T05:18:29.063Z,95111.94
2022-09-07T05:20:57.193Z,95114.50
2022-09-07T05:23:25.582Z,95119.31
2022-09-07T05:25:53.441Z,95118.84
2022-09-07T05:28:20.353Z,95113.31
2022-09-07T05:36:22.538Z,95115.88
2022-09-07T05:38:49.414Z,95108.53
2022-09-07T05:41:17.504Z,95113.94
2022-09-07T05:46:32.238Z,95106.91
2022-09-07T05:49:00.883Z,95108.34
2022-09-07T05:51:28.428Z,95105.81
2022-09-07T05:53:56.511Z,95109.97
2022-09-07T05:56:23.429Z,95110.91
2022-09-07T05:58:53.491Z,95117.13
2022-09-07T06:01:20.519Z,95120.97
2022-09-07T06:03:47.403Z,95113.56
2022-09-07T06:06:19.479Z,95104.31
2022-09-07T06:08:47.704Z,95119.44
2022-09-07T06:11:16.750Z,95118.44
2022-09-07T06:13:43.686Z,95124.34
2022-09-07T06:16:11.569Z,95121.81
2022-09-07T06:18:40.032Z,95123.56
2022-09-07T06:21:10.948Z,95116.97
2022-09-07T06:23:38.616Z,95119.78
2022-09-07T06:26:05.955Z,95128.06
2022-09-07T06:28:37.035Z,95125.63
2022-09-07T06:31:05.487Z,95125.75
2022-09-07T06:33:32.788Z,95134.94
2022-09-07T06:36:01.067Z,95125.59
2022-09-07T06:38:32.024Z,95125.41
2022-09-07T06:43:53.979Z,95121.03
2022-09-07T06:49:15.881Z,95122.84
2022-09-07T06:51:47.963Z,95129.72
2022-09-07T06:57:09.424Z,95143.84
2022-09-07T06:59:37.176Z,95137.53
2022-09-07T07:02:04.849Z,95142.88
2022-09-07T07:04:34.181Z,95132.09
2022-09-07T07:07:05.012Z,95138.22
2022-09-07T07:09:32.004Z,95142.19
2022-09-07T07:11:58.941Z,95142.59
2022-09-07T07:14:25.774Z,95136.22
2022-09-07T07:16:52.706Z,95132.19
2022-09-07T07:19:19.590Z,95140.13
2022-09-07T07:22:10.892Z,95139.56
2022-09-07T07:24:33.386Z,95132.22
2022-09-07T07:27:00.717Z,95132.44
2022-09-07T07:29:28.206Z,95138.78
2022-09-07T07:31:55.241Z,95144.13
2022-09-07T07:34:22.211Z,95145.44
2022-09-07T07:36:49.182Z,95148.81
2022-09-07T07:42:05.563Z,95140.88
2022-09-07T07:44:32.940Z,95139.63
2022-09-07T07:47:00.360Z,95138.84
2022-09-07T07:49:27.198Z,95133.94
2022-09-07T07:54:42.110Z,95145.38
2022-09-07T07:57:08.969Z,95145.25
2022-09-07T07:59:36.218Z,95138.97
2022-09-07T08:02:05.280Z,95140.56
2022-09-07T08:04:33.605Z,95140.75
2022-09-07T08:07:01.432Z,95145.28
2022-09-07T08:09:30.387Z,95137.94
2022-09-07T08:11:57.332Z,95137.25
2022-09-07T08:14:24.229Z,95136.03
2022-09-07T08:16:50.994Z,95136.06
2022-09-07T08:19:18.121Z,95143.22
2022-09-07T08:21:44.915Z,95137.50
2022-09-07T08:24:12.209Z,95132.22
2022-09-07T08:26:39.163Z,95137.88
2022-09-07T08:29:05.937Z,95130.75
2022-09-07T08:31:33.459Z,95132.97
2022-09-07T08:34:00.720Z,95136.47
2022-09-07T08:36:27.939Z,95130.47
2022-09-07T08:38:55.482Z,95125.09
2022-09-07T08:41:35.315Z,95127.78
2022-09-07T08:44:03.215Z,95118.44
2022-09-07T08:46:43.621Z,95124.56
2022-09-07T08:49:19.571Z,95119.50
2022-09-07T08:51:59.046Z,95117.72
2022-09-07T08:54:25.900Z,95120.25
2022-09-07T08:59:50.401Z,95103.69
2022-09-07T09:02:38.450Z,95102.03
2022-09-07T09:05:20.795Z,95093.81
2022-09-07T09:07:57.056Z,95092.84
2022-09-07T09:10:33.624Z,95085.47
2022-09-07T09:13:03.446Z,95086.47
2022-09-07T09:15:48.916Z,95081.41
2022-09-07T09:18:34.229Z,95084.44
2022-09-07T09:21:01.859Z,95079.78
2022-09-07T09:23:34.675Z,95085.25
2022-09-07T09:26:04.628Z,95077.22
2022-09-07T09:28:32.454Z,95071.22
2022-09-07T09:30:59.474Z,95078.00
2022-09-07T09:33:27.401Z,95074.19
2022-09-07T09:35:55.235Z,95060.66
2022-09-07T09:38:33.200Z,95065.31
2022-09-07T09:41:20.391Z,95060.25
2022-09-07T09:43:54.470Z,95064.09
2022-09-07T09:46:34.673Z,95063.63
2022-09-07T09:49:05.208Z,95055.63
2022-09-07T09:54:36.473Z,95056.38
2022-09-07T09:57:04.055Z,95056.13
2022-09-07T10:05:48.687Z,95049.41
2022-09-07T10:08:33.604Z,95045.22
2022-09-07T10:11:05.107Z,95035.00
2022-09-07T10:13:46.857Z,95036.66
2022-09-07T10:16:15.103Z,95026.56
2022-09-07T10:18:54.781Z,95027.34
2022-09-07T10:21:26.157Z,95020.66
2022-09-07T10:23:54.403Z,95006.09
2022-09-07T10:26:25.550Z,95006.16
2022-09-07T10:29:12.985Z,95014.81
2022-09-07T10:31:45.152Z,95008.50
2022-09-07T10:34:38.305Z,95003.72
2022-09-07T10:37:08.965Z,95007.59
2022-09-07T10:39:43.627Z,95007.53
2022-09-07T10:42:31.171Z,95001.97
2022-09-07T10:45:30.153Z,95004.91
2022-09-07T10:48:35.711Z,94996.38
2022-09-07T10:51:13.513Z,94997.34
2022-09-07T10:53:43.743Z,94994.84
2022-09-07T10:56:17.691Z,94997.84
2022-09-07T10:59:03.417Z,94989.91
2022-09-07T11:01:57.176Z,94983.41
2022-09-07T11:04:44.582Z,94977.91
2022-09-07T11:07:34.266Z,94986.59
2022-09-07T11:10:32.992Z,94982.34
2022-09-07T11:13:02.426Z,94985.94
2022-09-07T11:15:35.640Z,94974.84
2022-09-07T11:18:13.219Z,94969.41
2022-09-07T11:20:45.417Z,94966.38
2022-09-07T11:23:18.917Z,94966.72
2022-09-07T11:25:54.277Z,94959.66
2022-09-07T11:28:41.044Z,94961.22
2022-09-07T11:31:13.837Z,94950.63
2022-09-07T11:36:46.890Z,94958.38
2022-09-07T11:39:18.803Z,94954.81
2022-09-07T11:41:49.441Z,94951.59
2022-09-07T11:44:25.321Z,94950.78
2022-09-07T11:46:55.919Z,94945.34
2022-09-07T11:49:23.681Z,94944.72
2022-09-07T11:52:10.897Z,94944.25
2022-09-07T11:54:57.897Z,94938.19
2022-09-07T11:57:33.574Z,94932.78
2022-09-07T12:00:20.210Z,94931.56
2022-09-07T12:03:07.308Z,94923.72
2022-09-07T12:05:44.618Z,94924.16
2022-09-07T12:08:19.197Z,94929.63
2022-09-07T12:11:08.882Z,94927.03
2022-09-07T12:13:54.360Z,94923.00
2022-09-07T12:16:42.843Z,94916.91
2022-09-07T12:19:17.627Z,94912.75
2022-09-07T12:21:49.111Z,94913.16
2022-09-07T12:24:35.201Z,94906.28
2022-09-07T12:27:03.854Z,94908.69
2022-09-07T12:29:32.084Z,94908.38
2022-09-07T12:32:52.873Z,94900.91
2022-09-07T12:34:50.885Z,94899.22
2022-09-07T12:37:47.310Z,94904.00
2022-09-07T12:40:49.898Z,94900.22
2022-09-07T12:43:37.483Z,94899.00
2022-09-07T12:46:04.473Z,94890.69
2022-09-07T12:48:49.394Z,94878.09
2022-09-07T12:54:31.091Z,94870.44
2022-09-07T12:57:31.634Z,94883.66
2022-09-07T13:00:31.490Z,94876.75
2022-09-07T13:07:01.633Z,94859.22
2022-09-07T13:09:30.543Z,94860.25
2022-09-07T13:11:58.055Z,94852.47
2022-09-07T13:14:26.587Z,94866.63
2022-09-07T13:17:18.995Z,94864.91
2022-09-07T13:20:12.809Z,94861.72
2022-09-07T13:23:00.075Z,94860.34
2022-09-07T13:25:47.355Z,94863.84
2022-09-07T13:28:25.847Z,94859.56
2022-09-07T13:31:11.183Z,94864.13
2022-09-07T13:33:46.212Z,94857.88
2022-09-07T13:36:19.460Z,94853.81
2022-09-07T13:38:47.728Z,94852.03
2022-09-07T13:41:17.408Z,94851.34
2022-09-07T13:43:48.818Z,94846.19
2022-09-07T13:46:32.809Z,94844.34
2022-09-07T13:49:04.098Z,94845.31
2022-09-07T13:51:45.788Z,94847.09
2022-09-07T13:54:26.989Z,94840.41
2022-09-07T13:57:14.726Z,94842.75
2022-09-07T13:59:43.053Z,94844.75
2022-09-07T14:02:22.724Z,94836.25
2022-09-07T14:04:51.336Z,94830.63
2022-09-07T14:07:25.568Z,94828.13
2022-09-07T14:10:17.856Z,94829.72
2022-09-07T14:12:47.215Z,94833.59
2022-09-07T14:15:36.024Z,94831.84
2022-09-07T14:18:04.951Z,94833.16
2022-09-07T14:20:32.624Z,94829.09
2022-09-07T14:22:59.622Z,94840.81
2022-09-07T14:25:26.725Z,94831.84
2022-09-07T14:27:53.794Z,94835.16
2022-09-07T14:30:28.649Z,94835.47
2022-09-07T14:32:56.741Z,94831.75
2022-09-07T14:35:25.755Z,94833.75
2022-09-07T14:37:53.361Z,94833.13
2022-09-07T14:40:22.163Z,94832.00
2022-09-07T14:42:50.077Z,94827.34
2022-09-07T14:45:18.365Z,94819.88
2022-09-07T14:47:46.186Z,94821.09
2022-09-07T14:50:37.170Z,94815.19
2022-09-07T14:56:00.507Z,94819.53
2022-09-07T14:58:30.229Z,94817.09
2022-09-07T15:04:03.927Z,94819.88
2022-09-07T15:09:30.960Z,94817.34
2022-09-07T15:12:10.541Z,94811.44
2022-09-07T15:14:37.501Z,94826.25
2022-09-07T15:19:51.746Z,94815.63
2022-09-07T15:22:19.132Z,94817.09
2022-09-07T15:24:49.691Z,94818.06
2022-09-07T15:27:20.761Z,94818.09
2022-09-07T15:29:47.610Z,94814.16
2022-09-07T15:32:16.702Z,94815.16
2022-09-07T15:34:44.912Z,94821.81
2022-09-07T15:39:59.065Z,94817.38
2022-09-07T15:45:13.218Z,94817.59
2022-09-07T15:47:51.264Z,94811.38
2022-09-07T15:50:19.377Z,94813.41
2022-09-07T15:52:46.798Z,94816.78
2022-09-07T15:55:14.408Z,94813.72
2022-09-07T15:57:51.203Z,94816.03
2022-09-07T16:00:21.866Z,94813.22
2022-09-07T16:03:06.190Z,94816.84
2022-09-07T16:05:33.833Z,94819.66
2022-09-07T16:11:04.668Z,94825.06
2022-09-07T16:13:32.894Z,94828.63
2022-09-07T16:16:00.215Z,94819.81
2022-09-07T16:18:31.278Z,94807.81
2022-09-07T16:21:03.715Z,94810.47
2022-09-07T16:23:30.558Z,94805.78
2022-09-07T16:25:58.381Z,94808.72
2022-09-07T16:28:26.138Z,94811.25
2022-09-07T16:30:53.302Z,94818.81
2022-09-07T16:33:20.297Z,94804.78
2022-09-07T16:36:00.433Z,94803.28
2022-09-07T16:38:44.502Z,94803.16
2022-09-07T16:41:15.496Z,94800.97
2022-09-07T16:43:42.357Z,94808.78
2022-09-07T16:46:11.850Z,94798.50
2022-09-07T16:48:38.784Z,94804.38
2022-09-07T16:51:06.104Z,94796.66
2022-09-07T16:53:34.409Z,94800.78
2022-09-07T16:56:05.486Z,94798.06
2022-09-07T16:58:37.531Z,94813.13
2022-09-07T17:01:05.705Z,94816.59
2022-09-07T17:03:33.000Z,94812.16
2022-09-07T17:06:00.207Z,94821.09
2022-09-07T17:08:27.302Z,94819.66
2022-09-07T17:11:01.059Z,94822.91
2022-09-07T17:13:28.683Z,94827.78
2022-09-07T17:16:01.584Z,94832.56
2022-09-07T17:21:16.278Z,94835.09
2022-09-07T17:23:49.500Z,94823.28
2022-09-07T17:26:22.146Z,94820.94
2022-09-07T17:28:49.668Z,94831.53
2022-09-07T17:34:08.525Z,94829.56
2022-09-07T17:36:35.778Z,94831.91
2022-09-07T17:39:19.366Z,94835.06
2022-09-07T17:41:52.770Z,94837.81
2022-09-07T17:44:19.734Z,94834.63
2022-09-07T17:46:46.562Z,94837.34
2022-09-07T17:49:14.564Z,94851.44
2022-09-07T17:51:41.520Z,94853.66
2022-09-07T17:54:11.912Z,94867.63
2022-09-07T17:56:40.276Z,94863.50
2022-09-07T18:01:55.180Z,94874.16
2022-09-07T18:04:22.526Z,94873.25
2022-09-07T18:06:49.425Z,94874.00
2022-09-07T18:09:16.593Z,94876.75
2022-09-07T18:11:48.192Z,94872.50
2022-09-07T18:14:16.358Z,94881.22
2022-09-07T18:16:44.634Z,94885.16
2022-09-07T18:19:12.092Z,94887.50
2022-09-07T18:21:41.308Z,94881.91
2022-09-07T18:24:11.775Z,94899.94
2022-09-07T18:26:40.375Z,94893.16
2022-09-07T18:29:18.914Z,94897.38
2022-09-07T18:31:54.951Z,94895.06
2022-09-07T18:34:22.390Z,94900.53
2022-09-07T18:36:49.430Z,94897.34
2022-09-07T18:39:16.441Z,94899.63
2022-09-07T18:41:43.198Z,94893.25
2022-09-07T18:46:57.060Z,94898.28
2022-09-07T18:49:24.972Z,94901.69
2022-09-07T18:54:39.334Z,94893.66
2022-09-07T18:57:07.072Z,94898.63
2022-09-07T18:59:34.379Z,94891.75
2022-09-07T19:02:04.399Z,94897.47
2022-09-07T19:07:20.922Z,94900.03
2022-09-07T19:09:48.498Z,94901.50
2022-09-07T19:12:15.822Z,94898.75
2022-09-07T19:14:42.832Z,94908.56
2022-09-07T19:17:11.939Z,94899.06
2022-09-07T19:19:39.324Z,94907.88
2022-09-07T19:22:06.279Z,94903.03
2022-09-07T19:24:33.563Z,94898.91
2022-09-07T19:27:01.260Z,94901.84
2022-09-07T19:29:28.632Z,94907.06
2022-09-07T19:32:07.960Z,94901.53
2022-09-07T19:34:36.114Z,94912.47
2022-09-07T19:37:03.238Z,94916.84
2022-09-07T19:39:30.219Z,94919.94
2022-09-07T19:41:57.118Z,94920.53
2022-09-07T19:44:23.920Z,94920.31
2022-09-07T19:46:50.879Z,94926.63
2022-09-07T19:49:17.931Z,94919.31
2022-09-07T19:51:45.005Z,94921.97
2022-09-07T19:54:12.252Z,94929.38
2022-09-07T19:56:40.321Z,94926.22
2022-09-07T19:59:07.365Z,94920.19
2022-09-07T20:01:35.633Z,94912.06
2022-09-07T20:04:04.136Z,94922.75
2022-09-07T20:06:32.963Z,94915.19
2022-09-07T20:09:01.385Z,94918.94
2022-09-07T20:11:31.582Z,94915.91
2022-09-07T20:13:58.967Z,94919.00
2022-09-07T20:16:26.234Z,94919.47
2022-09-07T20:18:53.176Z,94920.19
2022-09-07T20:21:21.615Z,94926.00
2022-09-07T20:23:48.514Z,94927.88
2022-09-07T20:26:16.457Z,94931.75
2022-09-07T20:28:43.768Z,94930.31
2022-09-07T20:31:14.884Z,94927.16
2022-09-07T20:33:42.435Z,94927.00
2022-09-07T20:36:13.336Z,94924.38
2022-09-07T20:38:41.135Z,94937.22
2022-09-07T20:41:08.246Z,94927.47
2022-09-07T20:43:35.144Z,94937.28
2022-09-07T20:46:02.006Z,94935.63
2022-09-07T20:48:28.982Z,94933.91
2022-09-07T20:51:00.190Z,94947.66
2022-09-07T20:53:27.858Z,94950.50
2022-09-07T20:56:02.297Z,94949.84
2022-09-07T20:58:29.680Z,94944.81
2022-09-07T21:00:56.660Z,94954.69
2022-09-07T21:03:23.980Z,94955.81
2022-09-07T21:05:50.796Z,94961.28
2022-09-07T21:08:18.091Z,94956.59
2022-09-07T21:10:45.790Z,94959.88
2022-09-07T21:13:13.310Z,94966.47
2022-09-07T21:15:44.440Z,94964.19
2022-09-07T21:18:17.605Z,94963.22
2022-09-07T21:20:56.931Z,94961.38
2022-09-07T21:23:32.351Z,94960.47
2022-09-07T21:25:59.574Z,94967.53
2022-09-07T21:28:26.987Z,94964.34
2022-09-07T21:31:05.472Z,94968.00
2022-09-07T21:33:33.583Z,94960.06
2022-09-07T21:36:07.987Z,94959.97
2022-09-07T21:38:35.483Z,94957.56
2022-09-07T21:41:09.456Z,94960.63
2022-09-07T21:43:36.572Z,94968.25
2022-09-07T21:46:10.267Z,94957.13
2022-09-07T21:48:37.358Z,94956.34
2022-09-07T21:51:04.799Z,94963.28
2022-09-07T21:53:31.653Z,94961.00
2022-09-07T21:55:59.651Z,94962.25
2022-09-07T21:58:27.361Z,94970.75
2022-09-07T22:00:54.782Z,94953.50
2022-09-07T22:03:22.342Z,94951.81
2022-09-07T22:05:49.286Z,94959.41
2022-09-07T22:08:16.490Z,94956.91
2022-09-07T22:10:44.190Z,94958.41
2022-09-07T22:13:11.682Z,94966.69
2022-09-07T22:15:38.836Z,94962.56
2022-09-07T22:18:06.270Z,94957.13
2022-09-07T22:20:33.459Z,94949.75
2022-09-07T22:23:00.489Z,94953.84
2022-09-07T22:25:27.355Z,94951.13
2022-09-07T22:27:54.426Z,94950.56
2022-09-07T22:30:21.217Z,94942.72
2022-09-07T22:32:48.639Z,94942.25
2022-09-07T22:35:16.417Z,94941.91
2022-09-07T22:37:43.261Z,94941.47
2022-09-07T22:40:10.467Z,94936.81
2022-09-07T22:42:37.823Z,94939.28
2022-09-07T22:45:05.878Z,94944.03
2022-09-07T22:47:33.017Z,94946.66
2022-09-07T22:50:00.029Z,94946.38
2022-09-07T22:52:26.846Z,94943.22
2022-09-07T22:54:53.580Z,94940.03
2022-09-07T22:57:20.433Z,94946.81
2022-09-07T22:59:47.205Z,94941.13
2022-09-07T23:02:13.965Z,94942.47
2022-09-07T23:04:40.875Z,94945.75
2022-09-07T23:07:07.901Z,94944.94
2022-09-07T23:09:34.704Z,94936.47
2022-09-07T23:12:01.638Z,94938.38
2022-09-07T23:14:28.478Z,94940.31
2022-09-07T23:16:55.241Z,94938.16
2022-09-07T23:19:22.151Z,94936.56
2022-09-07T23:21:48.915Z,94940.09
2022-09-07T23:24:17.208Z,94939.97
2022-09-07T23:26:44.357Z,94937.31
2022-09-07T23:29:11.666Z,94933.81
2022-09-07T23:31:38.447Z,94938.13
2022-09-07T23:34:05.256Z,94940.25
2022-09-07T23:36:32.201Z,94937.19
2022-09-07T23:38:59.774Z,94935.72
2022-09-07T23:41:26.977Z,94934.25
2022-09-07T23:43:54.324Z,94939.84
2022-09-07T23:46:21.417Z,94941.63
2022-09-07T23:48:48.496Z,94936.28
2022-09-07T23:51:18.705Z,94931.19
2022-09-07T23:53:48.290Z,94933.31
2022-09-07T23:56:15.044Z,94923.91
2022-09-07T23:58:41.870Z,94925.84
